Webb City, MO

10:49 AM CDT on October 23, 2014 (GMT -0500)
Joplin Regional | Change Station
CLOSE
Current Station
Airport
Location: Joplin,
Elevation: 981 ft
Nearby Weather Stations

Elev 981 ft 37.15 °N, 94.50 °W | Updated 6 minutes ago

Overcast
Overcast
57 °F
Feels Like 57 °F
N
9
Wind Variable Wind from SSW

Today
High -- | Low -- °F
--% Chance of Precip.
Yesterday
High -- | Low -- °F
Precip. -- in
7:33 AM 6:30 PM
Waning Crescent, 0% visible
Pressure 30.18 in
Visibility 6.0 miles
Clouds Mostly Cloudy 900 ft
Overcast 6000 ft
Dew Point 55 °F
Humidity 93%
Rainfall 0.00 in
Snow Depth Not available.
UV 1 out of 12
Pollen 1.90 out of 12
Air Quality Not available.
Flu Activity No Activity
SPECI KJLN 231543Z 20008KT 6SM -RA BR BKN009 OVC060 14/13 A3018 RMK AO2 RAE10B22 CIG 007V012 P0001 T01390128

More Conditions Fewer Conditions

Pressure 30.18 in
Visibility 6.0 miles
Clouds Mostly Cloudy 900 ft
Overcast 6000 ft
Dew Point 55 °F
Humidity 93%
Rainfall 0.00 in
Snow Depth Not available.
UV 1 out of 12
Pollen 1.90 out of 12
Air Quality Not available.
Flu Activity No Activity
SPECI KJLN 231543Z 20008KT 6SM -RA BR BKN009 OVC060 14/13 A3018 RMK AO2 RAE10B22 CIG 007V012 P0001 T01390128

More Conditions Fewer Conditions

10-Day Weather Forecast

Almanac

Astronomy

Oct. 23, 2014 Rise Set
Actual Time 7:33 AM CDT 6:30 PM CDT
Civil Twilight 7:06 AM CDT 6:57 PM CDT
Nautical Twilight 6:36 AM CDT 7:27 PM CDT
Astronomical Twilight 6:06 AM CDT 7:57 PM CDT
Moon 7:14 AM CDT 6:32 PM CDT
Length of Visible Light 11h 50m
Length of Day
10h 57m
Tomorrow will be 2m 12s shorter.
Waning Crescent, 0% of the Moon is Illuminated
Today
Waning Crescent
Oct 23
New
Oct 30
First Quarter
Nov 6
Full
Nov 14
Last Quarter

Today's Extremes

State Highs State Lows

Community

WunderPhotos

Upload Photos

1,764,288 photos uploaded!

WunderBlogs® & News

Nearby

Snow Depth

Station Depth Elevation
No new snow has been reported.

Earthquake Activity

City Distance Mag. Time & Date
No recent earthquake activity has been reported nearby.
Minimum magnitude displayed is 2.5.

Coastal Water Temperatures

Place Temperature
No Stations Reporting

Nearby Weather Stations